sensor_id;sensor_type;location;lat;lon;timestamp;pressure;altitude;pressure_sealevel;temperature;humidity
55685;BME280;41883;49.544;8.646;2023-04-07T00:00:48;100553.88;;;7.02;nan
55685;BME280;41883;49.544;8.646;2023-04-07T00:03:14;100552.22;;;7.01;nan
55685;BME280;41883;49.544;8.646;2023-04-07T00:05:39;100557.34;;;7.02;nan
55685;BME280;41883;49.544;8.646;2023-04-07T00:08:05;100556.38;;;7.04;nan
55685;BME280;41883;49.544;8.646;2023-04-07T00:10:30;100545.50;;;7.08;nan
55685;BME280;41883;49.544;8.646;2023-04-07T00:12:56;100538.69;;;7.06;nan
55685;BME280;41883;49.544;8.646;2023-04-07T00:15:21;100541.56;;;7.02;nan
55685;BME280;41883;49.544;8.646;2023-04-07T00:17:46;100540.84;;;7.00;nan
55685;BME280;41883;49.544;8.646;2023-04-07T00:20:11;100532.28;;;6.98;nan
55685;BME280;41883;49.544;8.646;2023-04-07T00:22:36;100532.28;;;6.98;nan
55685;BME280;41883;49.544;8.646;2023-04-07T00:25:01;100525.34;;;6.97;nan
55685;BME280;41883;49.544;8.646;2023-04-07T00:27:27;100522.00;;;6.95;nan
55685;BME280;41883;49.544;8.646;2023-04-07T00:29:52;100515.91;;;6.95;nan
55685;BME280;41883;49.544;8.646;2023-04-07T00:32:19;100525.72;;;6.93;nan
55685;BME280;41883;49.544;8.646;2023-04-07T00:34:44;100517.13;;;6.91;nan
55685;BME280;41883;49.544;8.646;2023-04-07T00:37:10;100510.09;;;6.91;nan
55685;BME280;41883;49.544;8.646;2023-04-07T00:39:35;100512.56;;;6.93;nan
55685;BME280;41883;49.544;8.646;2023-04-07T00:42:02;100512.03;;;6.89;nan
55685;BME280;41883;49.544;8.646;2023-04-07T00:44:27;100505.06;;;6.88;nan
55685;BME280;41883;49.544;8.646;2023-04-07T00:46:52;100505.06;;;6.88;nan
55685;BME280;41883;49.544;8.646;2023-04-07T00:49:17;100493.72;;;6.88;nan
55685;BME280;41883;49.544;8.646;2023-04-07T00:51:43;100493.63;;;6.89;nan
55685;BME280;41883;49.544;8.646;2023-04-07T00:54:09;100490.72;;;6.92;nan
55685;BME280;41883;49.544;8.646;2023-04-07T00:56:35;100490.59;;;6.94;nan
55685;BME280;41883;49.544;8.646;2023-04-07T00:59:00;100478.56;;;6.91;nan
55685;BME280;41883;49.544;8.646;2023-04-07T01:01:29;100472.19;;;6.94;nan
55685;BME280;41883;49.544;8.646;2023-04-07T01:03:58;100480.22;;;6.92;nan
55685;BME280;41883;49.544;8.646;2023-04-07T01:06:26;100467.88;;;6.93;nan
55685;BME280;41883;49.544;8.646;2023-04-07T01:09:01;100463.47;;;6.93;nan
55685;BME280;41883;49.544;8.646;2023-04-07T01:11:28;100462.38;;;6.96;nan
55685;BME280;41883;49.544;8.646;2023-04-07T01:13:54;100463.22;;;6.96;nan
55685;BME280;41883;49.544;8.646;2023-04-07T01:17:03;100462.25;;;6.97;nan
55685;BME280;41883;49.544;8.646;2023-04-07T01:21:35;100453.84;;;7.04;nan
55685;BME280;41883;49.544;8.646;2023-04-07T01:26:35;100450.25;;;7.05;nan
55685;BME280;41883;49.544;8.646;2023-04-07T01:31:36;100448.59;;;7.04;nan
55685;BME280;41883;49.544;8.646;2023-04-07T01:34:03;100449.53;;;7.02;nan
55685;BME280;41883;49.544;8.646;2023-04-07T01:36:28;100447.06;;;7.01;nan
55685;BME280;41883;49.544;8.646;2023-04-07T01:38:56;100443.13;;;6.95;nan
55685;BME280;41883;49.544;8.646;2023-04-07T01:41:22;100447.44;;;6.96;nan
55685;BME280;41883;49.544;8.646;2023-04-07T01:43:48;100447.31;;;6.98;nan
55685;BME280;41883;49.544;8.646;2023-04-07T01:46:14;100450.78;;;6.98;nan
55685;BME280;41883;49.544;8.646;2023-04-07T01:48:39;100447.88;;;7.01;nan
55685;BME280;41883;49.544;8.646;2023-04-07T01:51:06;100442.75;;;7.00;nan
55685;BME280;41883;49.544;8.646;2023-04-07T01:53:31;100445.38;;;7.00;nan
55685;BME280;41883;49.544;8.646;2023-04-07T01:55:57;100443.34;;;7.04;nan
55685;BME280;41883;49.544;8.646;2023-04-07T01:58:22;100438.50;;;7.09;nan
55685;BME280;41883;49.544;8.646;2023-04-07T02:00:48;100432.97;;;7.12;nan
55685;BME280;41883;49.544;8.646;2023-04-07T02:03:17;100437.84;;;7.16;nan
55685;BME280;41883;49.544;8.646;2023-04-07T02:05:47;100438.66;;;7.17;nan
55685;BME280;41883;49.544;8.646;2023-04-07T02:08:14;100426.09;;;7.20;nan
55685;BME280;41883;49.544;8.646;2023-04-07T02:10:40;100431.22;;;7.22;nan
55685;BME280;41883;49.544;8.646;2023-04-07T02:13:08;100432.78;;;7.25;nan
55685;BME280;41883;49.544;8.646;2023-04-07T02:15:34;100433.31;;;7.28;nan
55685;BME280;41883;49.544;8.646;2023-04-07T02:18:00;100428.66;;;7.32;nan
55685;BME280;41883;49.544;8.646;2023-04-07T02:20:27;100429.31;;;7.34;nan
55685;BME280;41883;49.544;8.646;2023-04-07T02:22:53;100427.00;;;7.40;nan
55685;BME280;41883;49.544;8.646;2023-04-07T02:25:23;100428.53;;;7.43;nan
55685;BME280;41883;49.544;8.646;2023-04-07T02:27:49;100431.75;;;7.47;nan
55685;BME280;41883;49.544;8.646;2023-04-07T02:30:14;100422.88;;;7.48;nan
55685;BME280;41883;49.544;8.646;2023-04-07T02:32:40;100428.13;;;7.48;nan
55685;BME280;41883;49.544;8.646;2023-04-07T02:35:05;100421.06;;;7.48;nan
55685;BME280;41883;49.544;8.646;2023-04-07T02:37:30;100415.66;;;7.50;nan
55685;BME280;41883;49.544;8.646;2023-04-07T02:39:55;100422.59;;;7.51;nan
55685;BME280;41883;49.544;8.646;2023-04-07T02:42:21;100415.66;;;7.50;nan
55685;BME280;41883;49.544;8.646;2023-04-07T02:44:46;100417.59;;;7.48;nan
55685;BME280;41883;49.544;8.646;2023-04-07T02:47:11;100409.72;;;7.48;nan
55685;BME280;41883;49.544;8.646;2023-04-07T02:49:36;100410.53;;;7.48;nan
55685;BME280;41883;49.544;8.646;2023-04-07T02:52:01;100407.91;;;7.48;nan
55685;BME280;41883;49.544;8.646;2023-04-07T02:54:26;100410.84;;;7.55;nan
55685;BME280;41883;49.544;8.646;2023-04-07T02:56:52;100416.09;;;7.55;nan
55685;BME280;41883;49.544;8.646;2023-04-07T02:59:17;100406.97;;;7.59;nan
55685;BME280;41883;49.544;8.646;2023-04-07T03:01:42;100403.91;;;7.54;nan
55685;BME280;41883;49.544;8.646;2023-04-07T03:04:07;100407.38;;;7.54;nan
55685;BME280;41883;49.544;8.646;2023-04-07T03:06:32;100409.19;;;7.54;nan
55685;BME280;41883;49.544;8.646;2023-04-07T03:08:58;100403.09;;;7.53;nan
55685;BME280;41883;49.544;8.646;2023-04-07T03:11:23;100402.13;;;7.54;nan
55685;BME280;41883;49.544;8.646;2023-04-07T03:13:48;100401.53;;;7.51;nan
55685;BME280;41883;49.544;8.646;2023-04-07T03:16:13;100407.50;;;7.53;nan
55685;BME280;41883;49.544;8.646;2023-04-07T03:18:38;100407.66;;;7.51;nan
55685;BME280;41883;49.544;8.646;2023-04-07T03:21:03;100401.53;;;7.51;nan
55685;BME280;41883;49.544;8.646;2023-04-07T03:23:29;100401.00;;;7.57;nan
55685;BME280;41883;49.544;8.646;2023-04-07T03:25:54;100392.81;;;7.50;nan
55685;BME280;41883;49.544;8.646;2023-04-07T03:28:19;100400.47;;;7.53;nan
55685;BME280;41883;49.544;8.646;2023-04-07T03:30:45;100396.72;;;7.56;nan
55685;BME280;41883;49.544;8.646;2023-04-07T03:33:10;100393.25;;;7.55;nan
55685;BME280;41883;49.544;8.646;2023-04-07T03:35:35;100401.00;;;7.57;nan
55685;BME280;41883;49.544;8.646;2023-04-07T03:38:00;100388.84;;;7.56;nan
55685;BME280;41883;49.544;8.646;2023-04-07T03:40:25;100387.97;;;7.55;nan
55685;BME280;41883;49.544;8.646;2023-04-07T03:42:51;100389.09;;;7.53;nan
55685;BME280;41883;49.544;8.646;2023-04-07T03:45:16;100383.81;;;7.53;nan
55685;BME280;41883;49.544;8.646;2023-04-07T03:47:41;100383.97;;;7.51;nan
55685;BME280;41883;49.544;8.646;2023-04-07T03:50:06;100381.59;;;7.48;nan
55685;BME280;41883;49.544;8.646;2023-04-07T03:52:32;100378.97;;;7.48;nan
55685;BME280;41883;49.544;8.646;2023-04-07T03:54:57;100377.31;;;7.47;nan
55685;BME280;41883;49.544;8.646;2023-04-07T03:57:22;100379.66;;;7.50;nan
55685;BME280;41883;49.544;8.646;2023-04-07T03:59:47;100377.84;;;7.51;nan
55685;BME280;41883;49.544;8.646;2023-04-07T04:02:15;100383.81;;;7.53;nan
55685;BME280;41883;49.544;8.646;2023-04-07T04:04:40;100393.25;;;7.55;nan
55685;BME280;41883;49.544;8.646;2023-04-07T04:07:05;100384.53;;;7.55;nan
55685;BME280;41883;49.544;8.646;2023-04-07T04:09:30;100381.19;;;7.53;nan
55685;BME280;41883;49.544;8.646;2023-04-07T04:11:56;100385.50;;;7.54;nan
55685;BME280;41883;49.544;8.646;2023-04-07T04:14:21;100382.72;;;7.55;nan
55685;BME280;41883;49.544;8.646;2023-04-07T04:16:46;100387.03;;;7.56;nan
55685;BME280;41883;49.544;8.646;2023-04-07T04:19:11;100389.66;;;7.56;nan
55685;BME280;41883;49.544;8.646;2023-04-07T04:21:37;100389.50;;;7.58;nan
55685;BME280;41883;49.544;8.646;2023-04-07T04:24:02;100393.81;;;7.59;nan
55685;BME280;41883;49.544;8.646;2023-04-07T04:26:27;100398.25;;;7.58;nan
55685;BME280;41883;49.544;8.646;2023-04-07T04:28:53;100394.66;;;7.59;nan
55685;BME280;41883;49.544;8.646;2023-04-07T04:31:18;100402.66;;;7.58;nan
55685;BME280;41883;49.544;8.646;2023-04-07T04:33:44;100397.41;;;7.58;nan
55685;BME280;41883;49.544;8.646;2023-04-07T04:36:10;100393.25;;;7.55;nan
55685;BME280;41883;49.544;8.646;2023-04-07T04:38:35;100395.75;;;7.57;nan
55685;BME280;41883;49.544;8.646;2023-04-07T04:41:00;100392.13;;;7.58;nan
55685;BME280;41883;49.544;8.646;2023-04-07T04:43:26;100392.13;;;7.58;nan
55685;BME280;41883;49.544;8.646;2023-04-07T04:45:51;100396.16;;;7.62;nan
55685;BME280;41883;49.544;8.646;2023-04-07T04:48:16;100390.19;;;7.60;nan
55685;BME280;41883;49.544;8.646;2023-04-07T04:50:41;100400.19;;;7.56;nan
55685;BME280;41883;49.544;8.646;2023-04-07T04:53:07;100396.16;;;7.52;nan
55685;BME280;41883;49.544;8.646;2023-04-07T04:55:32;100393.53;;;7.52;nan
55685;BME280;41883;49.544;8.646;2023-04-07T04:57:57;100395.44;;;7.50;nan
55685;BME280;41883;49.544;8.646;2023-04-07T05:00:23;100395.59;;;7.49;nan
55685;BME280;41883;49.544;8.646;2023-04-07T05:02:48;100394.31;;;7.43;nan
55685;BME280;41883;49.544;8.646;2023-04-07T05:05:13;100401.50;;;7.41;nan
55685;BME280;41883;49.544;8.646;2023-04-07T05:07:38;100391.00;;;7.41;nan
55685;BME280;41883;49.544;8.646;2023-04-07T05:10:05;100384.63;;;7.43;nan
55685;BME280;41883;49.544;8.646;2023-04-07T05:12:30;100380.34;;;7.42;nan
55685;BME280;41883;49.544;8.646;2023-04-07T05:14:55;100393.50;;;7.42;nan
55685;BME280;41883;49.544;8.646;2023-04-07T05:17:21;100389.75;;;7.45;nan
55685;BME280;41883;49.544;8.646;2023-04-07T05:19:46;100388.66;;;7.48;nan
55685;BME280;41883;49.544;8.646;2023-04-07T05:22:11;100394.75;;;7.48;nan
55685;BME280;41883;49.544;8.646;2023-04-07T05:24:36;100390.34;;;7.49;nan
55685;BME280;41883;49.544;8.646;2023-04-07T05:27:01;100395.44;;;7.50;nan
55685;BME280;41883;49.544;8.646;2023-04-07T05:29:26;100386.59;;;7.51;nan
55685;BME280;41883;49.544;8.646;2023-04-07T05:31:52;100392.41;;;7.55;nan
55685;BME280;41883;49.544;8.646;2023-04-07T05:34:17;100387.84;;;7.57;nan
55685;BME280;41883;49.544;8.646;2023-04-07T05:36:42;100390.38;;;7.58;nan
55685;BME280;41883;49.544;8.646;2023-04-07T05:39:07;100391.19;;;7.59;nan
55685;BME280;41883;49.544;8.646;2023-04-07T05:41:42;100392.84;;;7.60;nan
55685;BME280;41883;49.544;8.646;2023-04-07T05:44:07;100403.94;;;7.63;nan
55685;BME280;41883;49.544;8.646;2023-04-07T05:46:33;100404.63;;;7.65;nan
55685;BME280;41883;49.544;8.646;2023-04-07T05:48:58;100403.66;;;7.66;nan
55685;BME280;41883;49.544;8.646;2023-04-07T05:51:23;100399.09;;;7.69;nan
55685;BME280;41883;49.544;8.646;2023-04-07T05:53:48;100390.22;;;7.70;nan
55685;BME280;41883;49.544;8.646;2023-04-07T05:56:13;100395.22;;;7.73;nan
55685;BME280;41883;49.544;8.646;2023-04-07T05:58:39;100392.19;;;7.77;nan
55685;BME280;41883;49.544;8.646;2023-04-07T06:01:04;100392.72;;;7.81;nan
55685;BME280;41883;49.544;8.646;2023-04-07T06:03:30;100394.13;;;7.85;nan
55685;BME280;41883;49.544;8.646;2023-04-07T06:05:56;100392.91;;;7.89;nan
55685;BME280;41883;49.544;8.646;2023-04-07T06:08:22;100390.09;;;7.91;nan
55685;BME280;41883;49.544;8.646;2023-04-07T06:10:47;100392.31;;;7.95;nan
55685;BME280;41883;49.544;8.646;2023-04-07T06:13:12;100391.91;;;8.00;nan
55685;BME280;41883;49.544;8.646;2023-04-07T06:15:38;100399.13;;;8.07;nan
55685;BME280;41883;49.544;8.646;2023-04-07T06:18:03;100400.38;;;8.13;nan
55685;BME280;41883;49.544;8.646;2023-04-07T06:20:28;100400.50;;;8.21;nan
55685;BME280;41883;49.544;8.646;2023-04-07T06:22:53;100401.31;;;8.32;nan
55685;BME280;41883;49.544;8.646;2023-04-07T06:25:19;100399.94;;;8.37;nan
55685;BME280;41883;49.544;8.646;2023-04-07T06:27:44;100404.66;;;8.43;nan
55685;BME280;41883;49.544;8.646;2023-04-07T06:30:09;100403.97;;;8.51;nan
55685;BME280;41883;49.544;8.646;2023-04-07T06:32:35;100396.31;;;8.58;nan
55685;BME280;41883;49.544;8.646;2023-04-07T06:35:00;100403.38;;;8.67;nan
55685;BME280;41883;49.544;8.646;2023-04-07T06:37:25;100408.63;;;8.77;nan
55685;BME280;41883;49.544;8.646;2023-04-07T06:39:51;100408.06;;;8.83;nan
55685;BME280;41883;49.544;8.646;2023-04-07T06:42:16;100399.56;;;8.89;nan
55685;BME280;41883;49.544;8.646;2023-04-07T06:44:41;100400.13;;;8.92;nan
55685;BME280;41883;49.544;8.646;2023-04-07T06:47:06;100403.72;;;9.01;nan
55685;BME280;41883;49.544;8.646;2023-04-07T06:49:33;100400.03;;;9.12;nan
55685;BME280;41883;49.544;8.646;2023-04-07T06:51:58;100399.84;;;9.23;nan
55685;BME280;41883;49.544;8.646;2023-04-07T06:54:23;100398.81;;;9.34;nan
55685;BME280;41883;49.544;8.646;2023-04-07T06:56:48;100403.09;;;9.45;nan
55685;BME280;41883;49.544;8.646;2023-04-07T06:59:14;100398.44;;;9.56;nan
55685;BME280;41883;49.544;8.646;2023-04-07T07:01:39;100400.31;;;9.64;nan
55685;BME280;41883;49.544;8.646;2023-04-07T07:04:05;100403.22;;;9.71;nan
55685;BME280;41883;49.544;8.646;2023-04-07T07:06:31;100400.63;;;9.79;nan
55685;BME280;41883;49.544;8.646;2023-04-07T07:08:57;100402.38;;;9.88;nan
55685;BME280;41883;49.544;8.646;2023-04-07T07:11:22;100392.63;;;9.89;nan
55685;BME280;41883;49.544;8.646;2023-04-07T07:13:47;100397.91;;;9.89;nan
55685;BME280;41883;49.544;8.646;2023-04-07T07:16:12;100399.59;;;9.90;nan
55685;BME280;41883;49.544;8.646;2023-04-07T07:18:38;100405.56;;;9.92;nan
55685;BME280;41883;49.544;8.646;2023-04-07T07:21:03;100411.66;;;9.92;nan
55685;BME280;41883;49.544;8.646;2023-04-07T07:23:28;100408.47;;;9.89;nan
55685;BME280;41883;49.544;8.646;2023-04-07T07:25:54;100398.63;;;10.09;nan
55685;BME280;41883;49.544;8.646;2023-04-07T07:28:19;100404.47;;;10.56;nan
55685;BME280;41883;49.544;8.646;2023-04-07T07:30:45;100405.19;;;10.93;nan
55685;BME280;41883;49.544;8.646;2023-04-07T07:33:11;100405.31;;;11.17;nan
55685;BME280;41883;49.544;8.646;2023-04-07T07:35:36;100400.56;;;11.29;nan
55685;BME280;41883;49.544;8.646;2023-04-07T07:38:02;100412.28;;;11.61;nan
55685;BME280;41883;49.544;8.646;2023-04-07T07:40:27;100406.25;;;12.09;nan
55685;BME280;41883;49.544;8.646;2023-04-07T07:42:52;100413.47;;;12.89;nan
55685;BME280;41883;49.544;8.646;2023-04-07T07:45:17;100400.81;;;13.55;nan
55685;BME280;41883;49.544;8.646;2023-04-07T07:47:43;100401.53;;;13.72;nan
55685;BME280;41883;49.544;8.646;2023-04-07T07:50:08;100397.47;;;13.85;nan
55685;BME280;41883;49.544;8.646;2023-04-07T07:52:34;100397.97;;;14.11;nan
55685;BME280;41883;49.544;8.646;2023-04-07T07:55:02;100402.50;;;14.26;nan
55685;BME280;41883;49.544;8.646;2023-04-07T07:57:27;100411.06;;;14.59;nan
55685;BME280;41883;49.544;8.646;2023-04-07T07:59:54;100401.16;;;14.68;nan
55685;BME280;41883;49.544;8.646;2023-04-07T08:02:19;100406.69;;;15.11;nan
55685;BME280;41883;49.544;8.646;2023-04-07T08:04:45;100412.34;;;15.52;nan
55685;BME280;41883;49.544;8.646;2023-04-07T08:07:10;100416.75;;;15.45;nan
55685;BME280;41883;49.544;8.646;2023-04-07T08:09:36;100417.81;;;15.14;nan
55685;BME280;41883;49.544;8.646;2023-04-07T08:12:01;100420.81;;;14.96;nan
55685;BME280;41883;49.544;8.646;2023-04-07T08:14:27;100419.44;;;15.00;nan
55685;BME280;41883;49.544;8.646;2023-04-07T08:16:52;100417.88;;;14.91;nan
55685;BME280;41883;49.544;8.646;2023-04-07T08:19:17;100427.53;;;14.92;nan
55685;BME280;41883;49.544;8.646;2023-04-07T08:21:43;100434.56;;;14.70;nan
55685;BME280;41883;49.544;8.646;2023-04-07T08:24:08;100396.84;;;14.43;nan
55685;BME280;41883;49.544;8.646;2023-04-07T11:52:46;100295.91;;;17.68;nan
